sensor_id;sensor_type;location;lat;lon;timestamp;P1;durP1;ratioP1;P2;durP2;ratioP2
7003;SDS011;3542;48.812;9.146;2023-02-28T00:02:15;68.00;;;3.60;;
7003;SDS011;3542;48.812;9.146;2023-02-28T00:04:42;66.80;;;3.37;;
7003;SDS011;3542;48.812;9.146;2023-02-28T00:07:08;69.37;;;3.27;;
7003;SDS011;3542;48.812;9.146;2023-02-28T00:09:33;71.07;;;4.00;;
7003;SDS011;3542;48.812;9.146;2023-02-28T00:11:59;70.93;;;3.73;;
7003;SDS011;3542;48.812;9.146;2023-02-28T00:14:24;78.40;;;4.40;;
7003;SDS011;3542;48.812;9.146;2023-02-28T00:16:50;70.77;;;4.00;;
7003;SDS011;3542;48.812;9.146;2023-02-28T00:19:15;70.90;;;4.10;;
7003;SDS011;3542;48.812;9.146;2023-02-28T00:21:41;69.90;;;3.97;;
7003;SDS011;3542;48.812;9.146;2023-02-28T00:24:07;71.07;;;4.50;;
7003;SDS011;3542;48.812;9.146;2023-02-28T00:26:33;70.07;;;3.87;;
7003;SDS011;3542;48.812;9.146;2023-02-28T00:28:58;69.00;;;3.63;;
7003;SDS011;3542;48.812;9.146;2023-02-28T00:31:24;66.87;;;3.73;;
7003;SDS011;3542;48.812;9.146;2023-02-28T00:33:49;70.63;;;4.13;;
7003;SDS011;3542;48.812;9.146;2023-02-28T00:36:16;69.27;;;3.50;;
7003;SDS011;3542;48.812;9.146;2023-02-28T00:38:42;69.93;;;4.03;;
7003;SDS011;3542;48.812;9.146;2023-02-28T00:41:07;69.47;;;3.67;;
7003;SDS011;3542;48.812;9.146;2023-02-28T00:43:34;72.20;;;4.13;;
7003;SDS011;3542;48.812;9.146;2023-02-28T00:46:01;68.70;;;3.90;;
7003;SDS011;3542;48.812;9.146;2023-02-28T00:48:27;71.60;;;3.80;;
7003;SDS011;3542;48.812;9.146;2023-02-28T00:50:53;69.90;;;4.47;;
7003;SDS011;3542;48.812;9.146;2023-02-28T00:53:18;67.57;;;3.63;;
7003;SDS011;3542;48.812;9.146;2023-02-28T00:55:44;69.77;;;3.87;;
7003;SDS011;3542;48.812;9.146;2023-02-28T00:58:09;70.50;;;4.43;;
7003;SDS011;3542;48.812;9.146;2023-02-28T01:00:35;70.43;;;4.73;;
7003;SDS011;3542;48.812;9.146;2023-02-28T01:03:00;69.47;;;4.40;;
7003;SDS011;3542;48.812;9.146;2023-02-28T01:05:26;69.50;;;4.03;;
7003;SDS011;3542;48.812;9.146;2023-02-28T01:07:52;69.50;;;3.87;;
7003;SDS011;3542;48.812;9.146;2023-02-28T01:10:17;74.37;;;4.60;;
7003;SDS011;3542;48.812;9.146;2023-02-28T01:12:43;70.67;;;4.87;;
7003;SDS011;3542;48.812;9.146;2023-02-28T01:15:09;71.17;;;4.37;;
7003;SDS011;3542;48.812;9.146;2023-02-28T01:17:36;71.77;;;4.13;;
7003;SDS011;3542;48.812;9.146;2023-02-28T01:20:01;72.27;;;4.80;;
7003;SDS011;3542;48.812;9.146;2023-02-28T01:22:27;70.50;;;4.50;;
7003;SDS011;3542;48.812;9.146;2023-02-28T01:24:53;68.40;;;3.93;;
7003;SDS011;3542;48.812;9.146;2023-02-28T01:27:19;70.90;;;4.87;;
7003;SDS011;3542;48.812;9.146;2023-02-28T01:29:44;67.17;;;3.97;;
7003;SDS011;3542;48.812;9.146;2023-02-28T01:32:10;67.83;;;3.80;;
7003;SDS011;3542;48.812;9.146;2023-02-28T01:34:35;68.53;;;4.97;;
7003;SDS011;3542;48.812;9.146;2023-02-28T01:37:01;72.67;;;4.13;;
7003;SDS011;3542;48.812;9.146;2023-02-28T01:39:28;74.13;;;4.10;;
7003;SDS011;3542;48.812;9.146;2023-02-28T01:41:54;68.43;;;4.60;;
7003;SDS011;3542;48.812;9.146;2023-02-28T01:47:23;73.00;;;5.07;;
7003;SDS011;3542;48.812;9.146;2023-02-28T01:49:51;68.37;;;4.33;;
7003;SDS011;3542;48.812;9.146;2023-02-28T01:52:17;70.70;;;4.90;;
7003;SDS011;3542;48.812;9.146;2023-02-28T01:54:51;74.30;;;5.83;;
7003;SDS011;3542;48.812;9.146;2023-02-28T01:57:19;71.53;;;4.67;;
7003;SDS011;3542;48.812;9.146;2023-02-28T01:59:51;70.03;;;4.43;;
7003;SDS011;3542;48.812;9.146;2023-02-28T03:32:56;130.93;;;41.33;;
7003;SDS011;3542;48.812;9.146;2023-02-28T03:35:34;129.27;;;40.03;;
7003;SDS011;3542;48.812;9.146;2023-02-28T03:38:05;129.97;;;38.13;;
7003;SDS011;3542;48.812;9.146;2023-02-28T03:40:44;131.27;;;40.60;;
7003;SDS011;3542;48.812;9.146;2023-02-28T03:43:14;129.73;;;40.50;;
7003;SDS011;3542;48.812;9.146;2023-02-28T03:45:45;127.73;;;38.63;;
7003;SDS011;3542;48.812;9.146;2023-02-28T03:50:45;131.10;;;42.00;;
7003;SDS011;3542;48.812;9.146;2023-02-28T03:53:22;133.17;;;43.07;;
7003;SDS011;3542;48.812;9.146;2023-02-28T03:55:54;129.03;;;36.37;;
7003;SDS011;3542;48.812;9.146;2023-02-28T04:01:13;143.63;;;38.00;;
7003;SDS011;3542;48.812;9.146;2023-02-28T04:03:52;129.50;;;39.30;;
7003;SDS011;3542;48.812;9.146;2023-02-28T04:06:19;127.70;;;40.77;;
7003;SDS011;3542;48.812;9.146;2023-02-28T04:08:47;128.60;;;36.07;;
7003;SDS011;3542;48.812;9.146;2023-02-28T04:14:02;128.63;;;40.67;;
7003;SDS011;3542;48.812;9.146;2023-02-28T04:16:28;127.70;;;37.77;;
7003;SDS011;3542;48.812;9.146;2023-02-28T04:18:54;127.37;;;37.10;;
7003;SDS011;3542;48.812;9.146;2023-02-28T04:21:27;125.50;;;37.87;;
7003;SDS011;3542;48.812;9.146;2023-02-28T04:23:53;125.50;;;37.73;;
7003;SDS011;3542;48.812;9.146;2023-02-28T04:26:19;123.27;;;35.60;;
7003;SDS011;3542;48.812;9.146;2023-02-28T04:28:44;126.67;;;37.87;;
7003;SDS011;3542;48.812;9.146;2023-02-28T04:31:10;129.93;;;36.33;;
7003;SDS011;3542;48.812;9.146;2023-02-28T04:33:35;128.57;;;36.33;;
7003;SDS011;3542;48.812;9.146;2023-02-28T04:36:05;124.67;;;36.70;;
7003;SDS011;3542;48.812;9.146;2023-02-28T04:38:34;131.57;;;34.23;;
7003;SDS011;3542;48.812;9.146;2023-02-28T04:41:01;131.43;;;39.37;;
7003;SDS011;3542;48.812;9.146;2023-02-28T04:43:26;126.33;;;36.67;;
7003;SDS011;3542;48.812;9.146;2023-02-28T04:45:53;128.90;;;36.43;;
7003;SDS011;3542;48.812;9.146;2023-02-28T04:48:21;126.47;;;38.60;;
7003;SDS011;3542;48.812;9.146;2023-02-28T04:50:48;127.50;;;38.50;;
7003;SDS011;3542;48.812;9.146;2023-02-28T04:53:14;127.70;;;37.43;;
7003;SDS011;3542;48.812;9.146;2023-02-28T04:55:39;126.37;;;36.97;;
7003;SDS011;3542;48.812;9.146;2023-02-28T04:58:05;128.50;;;34.93;;
7003;SDS011;3542;48.812;9.146;2023-02-28T05:00:31;128.77;;;38.67;;
7003;SDS011;3542;48.812;9.146;2023-02-28T05:02:56;129.20;;;37.43;;
7003;SDS011;3542;48.812;9.146;2023-02-28T05:05:22;128.20;;;37.47;;
7003;SDS011;3542;48.812;9.146;2023-02-28T05:07:47;126.63;;;37.67;;
7003;SDS011;3542;48.812;9.146;2023-02-28T05:10:13;127.80;;;36.97;;
7003;SDS011;3542;48.812;9.146;2023-02-28T05:12:38;129.27;;;39.80;;
7003;SDS011;3542;48.812;9.146;2023-02-28T05:15:04;126.40;;;38.00;;
7003;SDS011;3542;48.812;9.146;2023-02-28T05:17:30;127.03;;;38.70;;
7003;SDS011;3542;48.812;9.146;2023-02-28T05:19:56;133.03;;;40.87;;
7003;SDS011;3542;48.812;9.146;2023-02-28T05:22:21;128.73;;;39.97;;
7003;SDS011;3542;48.812;9.146;2023-02-28T05:24:47;130.80;;;37.40;;
7003;SDS011;3542;48.812;9.146;2023-02-28T05:27:13;129.03;;;39.20;;
7003;SDS011;3542;48.812;9.146;2023-02-28T05:29:38;134.43;;;39.27;;
7003;SDS011;3542;48.812;9.146;2023-02-28T05:32:08;129.43;;;36.47;;
7003;SDS011;3542;48.812;9.146;2023-02-28T05:34:35;131.90;;;38.20;;
7003;SDS011;3542;48.812;9.146;2023-02-28T05:37:02;130.23;;;35.17;;
7003;SDS011;3542;48.812;9.146;2023-02-28T05:39:27;125.10;;;35.80;;
7003;SDS011;3542;48.812;9.146;2023-02-28T05:41:53;126.57;;;38.40;;
7003;SDS011;3542;48.812;9.146;2023-02-28T05:44:18;128.37;;;40.07;;
7003;SDS011;3542;48.812;9.146;2023-02-28T05:46:44;126.37;;;37.77;;
7003;SDS011;3542;48.812;9.146;2023-02-28T05:49:09;1383.97;;;683.47;;
7003;SDS011;3542;48.812;9.146;2023-02-28T05:51:35;1999.90;;;999.90;;
7003;SDS011;3542;48.812;9.146;2023-02-28T05:54:01;1999.90;;;999.90;;
7003;SDS011;3542;48.812;9.146;2023-02-28T05:56:26;1999.90;;;999.90;;
7003;SDS011;3542;48.812;9.146;2023-02-28T05:58:52;1999.90;;;999.90;;
7003;SDS011;3542;48.812;9.146;2023-02-28T06:01:19;120.60;;;27.53;;
7003;SDS011;3542;48.812;9.146;2023-02-28T06:04:02;105.20;;;15.50;;
7003;SDS011;3542;48.812;9.146;2023-02-28T06:06:29;106.87;;;15.20;;
7003;SDS011;3542;48.812;9.146;2023-02-28T06:08:55;107.57;;;15.10;;
7003;SDS011;3542;48.812;9.146;2023-02-28T06:11:21;108.10;;;16.30;;
7003;SDS011;3542;48.812;9.146;2023-02-28T06:13:52;108.07;;;17.17;;
7003;SDS011;3542;48.812;9.146;2023-02-28T06:16:19;106.70;;;17.17;;
7003;SDS011;3542;48.812;9.146;2023-02-28T06:18:45;111.70;;;17.23;;
7003;SDS011;3542;48.812;9.146;2023-02-28T06:21:11;113.83;;;17.70;;
7003;SDS011;3542;48.812;9.146;2023-02-28T06:23:37;108.87;;;16.00;;
7003;SDS011;3542;48.812;9.146;2023-02-28T06:26:03;106.60;;;16.30;;
7003;SDS011;3542;48.812;9.146;2023-02-28T06:28:28;114.17;;;18.17;;
7003;SDS011;3542;48.812;9.146;2023-02-28T06:30:54;116.50;;;20.07;;
7003;SDS011;3542;48.812;9.146;2023-02-28T06:33:20;111.57;;;19.00;;
7003;SDS011;3542;48.812;9.146;2023-02-28T06:35:51;110.50;;;17.90;;
7003;SDS011;3542;48.812;9.146;2023-02-28T06:38:18;114.43;;;19.70;;
7003;SDS011;3542;48.812;9.146;2023-02-28T06:40:44;114.67;;;19.53;;
7003;SDS011;3542;48.812;9.146;2023-02-28T06:43:10;114.70;;;21.27;;
7003;SDS011;3542;48.812;9.146;2023-02-28T06:45:44;122.17;;;22.10;;
7003;SDS011;3542;48.812;9.146;2023-02-28T06:48:10;126.67;;;26.37;;
7003;SDS011;3542;48.812;9.146;2023-02-28T06:50:35;118.67;;;23.70;;
7003;SDS011;3542;48.812;9.146;2023-02-28T06:53:01;119.20;;;23.50;;
7003;SDS011;3542;48.812;9.146;2023-02-28T06:55:27;120.07;;;23.63;;
7003;SDS011;3542;48.812;9.146;2023-02-28T06:57:52;121.10;;;26.13;;
7003;SDS011;3542;48.812;9.146;2023-02-28T07:00:19;122.87;;;25.40;;
7003;SDS011;3542;48.812;9.146;2023-02-28T07:02:45;126.27;;;25.00;;
7003;SDS011;3542;48.812;9.146;2023-02-28T07:05:12;152.17;;;42.13;;
7003;SDS011;3542;48.812;9.146;2023-02-28T07:07:37;125.60;;;27.07;;
7003;SDS011;3542;48.812;9.146;2023-02-28T07:10:05;125.80;;;29.00;;
7003;SDS011;3542;48.812;9.146;2023-02-28T07:12:31;126.20;;;32.10;;
7003;SDS011;3542;48.812;9.146;2023-02-28T07:14:57;140.60;;;32.13;;
7003;SDS011;3542;48.812;9.146;2023-02-28T07:17:22;128.20;;;32.20;;
7003;SDS011;3542;48.812;9.146;2023-02-28T07:19:48;134.63;;;39.53;;
7003;SDS011;3542;48.812;9.146;2023-02-28T07:22:13;127.77;;;35.97;;
7003;SDS011;3542;48.812;9.146;2023-02-28T07:24:39;127.80;;;36.40;;
7003;SDS011;3542;48.812;9.146;2023-02-28T07:27:04;133.00;;;38.53;;
7003;SDS011;3542;48.812;9.146;2023-02-28T07:29:30;129.37;;;36.40;;
7003;SDS011;3542;48.812;9.146;2023-02-28T07:31:55;126.37;;;36.50;;
7003;SDS011;3542;48.812;9.146;2023-02-28T07:34:22;125.80;;;33.07;;
7003;SDS011;3542;48.812;9.146;2023-02-28T07:36:47;128.77;;;37.27;;
7003;SDS011;3542;48.812;9.146;2023-02-28T07:39:13;131.47;;;34.40;;
7003;SDS011;3542;48.812;9.146;2023-02-28T07:41:38;128.10;;;35.00;;
7003;SDS011;3542;48.812;9.146;2023-02-28T07:44:08;129.77;;;38.80;;
7003;SDS011;3542;48.812;9.146;2023-02-28T07:46:35;128.47;;;34.87;;
7003;SDS011;3542;48.812;9.146;2023-02-28T07:49:01;126.60;;;35.63;;
7003;SDS011;3542;48.812;9.146;2023-02-28T07:51:28;128.07;;;36.87;;
7003;SDS011;3542;48.812;9.146;2023-02-28T07:53:54;128.97;;;36.90;;
7003;SDS011;3542;48.812;9.146;2023-02-28T07:56:20;132.77;;;35.60;;
7003;SDS011;3542;48.812;9.146;2023-02-28T07:58:45;130.33;;;38.70;;
7003;SDS011;3542;48.812;9.146;2023-02-28T08:01:11;128.47;;;36.50;;
7003;SDS011;3542;48.812;9.146;2023-02-28T08:03:37;131.67;;;39.70;;
7003;SDS011;3542;48.812;9.146;2023-02-28T08:06:03;129.97;;;36.97;;
7003;SDS011;3542;48.812;9.146;2023-02-28T08:08:30;154.27;;;65.33;;
7003;SDS011;3542;48.812;9.146;2023-02-28T08:10:57;143.20;;;44.13;;
7003;SDS011;3542;48.812;9.146;2023-02-28T08:13:25;143.60;;;46.63;;
7003;SDS011;3542;48.812;9.146;2023-02-28T08:15:52;142.73;;;43.90;;
7003;SDS011;3542;48.812;9.146;2023-02-28T08:18:19;143.80;;;49.97;;
7003;SDS011;3542;48.812;9.146;2023-02-28T08:20:46;144.97;;;54.90;;
7003;SDS011;3542;48.812;9.146;2023-02-28T08:23:11;147.07;;;55.50;;
7003;SDS011;3542;48.812;9.146;2023-02-28T08:25:37;148.37;;;52.30;;
7003;SDS011;3542;48.812;9.146;2023-02-28T08:28:03;138.70;;;47.50;;
7003;SDS011;3542;48.812;9.146;2023-02-28T08:30:28;143.00;;;50.10;;
7003;SDS011;3542;48.812;9.146;2023-02-28T08:32:54;144.17;;;53.70;;
7003;SDS011;3542;48.812;9.146;2023-02-28T08:35:20;145.27;;;53.30;;
7003;SDS011;3542;48.812;9.146;2023-02-28T08:37:49;143.73;;;49.33;;
7003;SDS011;3542;48.812;9.146;2023-02-28T08:40:15;138.10;;;48.97;;
7003;SDS011;3542;48.812;9.146;2023-02-28T08:42:47;139.70;;;48.50;;
7003;SDS011;3542;48.812;9.146;2023-02-28T08:45:13;151.30;;;52.63;;
7003;SDS011;3542;48.812;9.146;2023-02-28T08:47:39;142.87;;;52.70;;
7003;SDS011;3542;48.812;9.146;2023-02-28T08:50:05;141.00;;;50.20;;
7003;SDS011;3542;48.812;9.146;2023-02-28T08:52:31;148.27;;;56.40;;
7003;SDS011;3542;48.812;9.146;2023-02-28T08:54:57;143.90;;;56.40;;
7003;SDS011;3542;48.812;9.146;2023-02-28T08:57:23;148.40;;;57.50;;
7003;SDS011;3542;48.812;9.146;2023-02-28T08:59:50;140.83;;;56.37;;
7003;SDS011;3542;48.812;9.146;2023-02-28T09:02:16;141.67;;;52.63;;
7003;SDS011;3542;48.812;9.146;2023-02-28T09:04:41;143.33;;;53.50;;
7003;SDS011;3542;48.812;9.146;2023-02-28T09:07:07;140.70;;;52.30;;
7003;SDS011;3542;48.812;9.146;2023-02-28T09:09:32;143.67;;;57.17;;
7003;SDS011;3542;48.812;9.146;2023-02-28T09:11:58;137.80;;;49.33;;
7003;SDS011;3542;48.812;9.146;2023-02-28T09:14:24;140.97;;;50.70;;
7003;SDS011;3542;48.812;9.146;2023-02-28T09:16:50;140.33;;;53.23;;
7003;SDS011;3542;48.812;9.146;2023-02-28T09:19:15;142.40;;;51.07;;
7003;SDS011;3542;48.812;9.146;2023-02-28T09:21:41;142.03;;;50.60;;
7003;SDS011;3542;48.812;9.146;2023-02-28T09:24:06;139.53;;;53.43;;
7003;SDS011;3542;48.812;9.146;2023-02-28T09:26:32;135.67;;;46.53;;
7003;SDS011;3542;48.812;9.146;2023-02-28T09:28:59;142.77;;;46.60;;
7003;SDS011;3542;48.812;9.146;2023-02-28T09:31:25;141.77;;;43.80;;
7003;SDS011;3542;48.812;9.146;2023-02-28T09:33:55;139.83;;;41.83;;
7003;SDS011;3542;48.812;9.146;2023-02-28T09:36:22;141.90;;;45.63;;
7003;SDS011;3542;48.812;9.146;2023-02-28T09:38:49;137.83;;;40.77;;
7003;SDS011;3542;48.812;9.146;2023-02-28T09:41:20;135.90;;;42.87;;
7003;SDS011;3542;48.812;9.146;2023-02-28T09:43:54;138.97;;;41.83;;
7003;SDS011;3542;48.812;9.146;2023-02-28T09:46:29;168.43;;;70.53;;
7003;SDS011;3542;48.812;9.146;2023-02-28T09:49:04;137.07;;;39.27;;
7003;SDS011;3542;48.812;9.146;2023-02-28T09:51:39;135.20;;;40.30;;
7003;SDS011;3542;48.812;9.146;2023-02-28T09:54:17;140.47;;;40.97;;
7003;SDS011;3542;48.812;9.146;2023-02-28T09:56:47;137.50;;;40.00;;
7003;SDS011;3542;48.812;9.146;2023-02-28T09:59:43;139.87;;;40.40;;
7003;SDS011;3542;48.812;9.146;2023-02-28T10:05:29;136.00;;;40.73;;
7003;SDS011;3542;48.812;9.146;2023-02-28T10:08:19;136.23;;;41.47;;
7003;SDS011;3542;48.812;9.146;2023-02-28T10:11:01;137.10;;;43.67;;
7003;SDS011;3542;48.812;9.146;2023-02-28T10:16:01;139.07;;;42.37;;
7003;SDS011;3542;48.812;9.146;2023-02-28T10:18:34;133.40;;;39.93;;
7003;SDS011;3542;48.812;9.146;2023-02-28T10:21:23;138.87;;;39.20;;
7003;SDS011;3542;48.812;9.146;2023-02-28T10:24:03;136.50;;;39.33;;
7003;SDS011;3542;48.812;9.146;2023-02-28T10:26:35;139.20;;;40.00;;
7003;SDS011;3542;48.812;9.146;2023-02-28T10:29:01;143.17;;;45.27;;
7003;SDS011;3542;48.812;9.146;2023-02-28T10:31:28;136.00;;;36.23;;
7003;SDS011;3542;48.812;9.146;2023-02-28T10:33:54;133.40;;;36.27;;
7003;SDS011;3542;48.812;9.146;2023-02-28T10:36:20;132.37;;;36.10;;
7003;SDS011;3542;48.812;9.146;2023-02-28T10:38:47;131.27;;;35.33;;
7003;SDS011;3542;48.812;9.146;2023-02-28T10:41:14;128.07;;;33.57;;
7003;SDS011;3542;48.812;9.146;2023-02-28T10:43:51;131.83;;;35.17;;
7003;SDS011;3542;48.812;9.146;2023-02-28T10:46:18;131.53;;;34.87;;
7003;SDS011;3542;48.812;9.146;2023-02-28T10:49:02;131.63;;;32.43;;
7003;SDS011;3542;48.812;9.146;2023-02-28T10:51:37;134.20;;;37.67;;
7003;SDS011;3542;48.812;9.146;2023-02-28T10:54:04;131.27;;;35.43;;
7003;SDS011;3542;48.812;9.146;2023-02-28T10:56:30;134.40;;;35.90;;
7003;SDS011;3542;48.812;9.146;2023-02-28T11:04:16;129.93;;;34.60;;
7003;SDS011;3542;48.812;9.146;2023-02-28T11:06:44;130.33;;;34.70;;
7003;SDS011;3542;48.812;9.146;2023-02-28T11:09:24;135.50;;;37.20;;
7003;SDS011;3542;48.812;9.146;2023-02-28T11:12:04;132.17;;;33.90;;
7003;SDS011;3542;48.812;9.146;2023-02-28T11:14:47;128.20;;;35.50;;
7003;SDS011;3542;48.812;9.146;2023-02-28T11:17:18;130.87;;;36.90;;
7003;SDS011;3542;48.812;9.146;2023-02-28T11:19:47;127.40;;;34.27;;
7003;SDS011;3542;48.812;9.146;2023-02-28T11:22:17;129.50;;;35.47;;
7003;SDS011;3542;48.812;9.146;2023-02-28T11:24:46;129.70;;;37.43;;
7003;SDS011;3542;48.812;9.146;2023-02-28T11:29:56;132.80;;;33.00;;
7003;SDS011;3542;48.812;9.146;2023-02-28T11:32:23;129.50;;;31.77;;
7003;SDS011;3542;48.812;9.146;2023-02-28T11:35:10;130.70;;;34.07;;
7003;SDS011;3542;48.812;9.146;2023-02-28T11:37:47;127.87;;;33.87;;
7003;SDS011;3542;48.812;9.146;2023-02-28T11:40:16;125.53;;;29.20;;
7003;SDS011;3542;48.812;9.146;2023-02-28T11:42:52;134.60;;;34.03;;
7003;SDS011;3542;48.812;9.146;2023-02-28T11:45:38;129.97;;;34.57;;
7003;SDS011;3542;48.812;9.146;2023-02-28T11:50:59;130.50;;;35.80;;
7003;SDS011;3542;48.812;9.146;2023-02-28T11:56:47;137.10;;;35.40;;
7003;SDS011;3542;48.812;9.146;2023-02-28T12:12:54;84.80;;;12.70;;
7003;SDS011;3542;48.812;9.146;2023-02-28T12:24:24;82.10;;;12.93;;
7003;SDS011;3542;48.812;9.146;2023-02-28T12:27:14;86.87;;;14.27;;
7003;SDS011;3542;48.812;9.146;2023-02-28T12:29:49;86.70;;;13.67;;
7003;SDS011;3542;48.812;9.146;2023-02-28T12:32:36;93.70;;;15.10;;
7003;SDS011;3542;48.812;9.146;2023-02-28T12:40:12;84.17;;;13.00;;
7003;SDS011;3542;48.812;9.146;2023-02-28T12:42:51;91.60;;;14.20;;
7003;SDS011;3542;48.812;9.146;2023-02-28T12:45:20;126.83;;;20.50;;
7003;SDS011;3542;48.812;9.146;2023-02-28T12:47:54;88.90;;;13.33;;
7003;SDS011;3542;48.812;9.146;2023-02-28T12:50:25;91.60;;;14.47;;
7003;SDS011;3542;48.812;9.146;2023-02-28T12:58:28;93.97;;;15.67;;
7003;SDS011;3542;48.812;9.146;2023-02-28T13:01:06;102.07;;;15.40;;
7003;SDS011;3542;48.812;9.146;2023-02-28T13:09:33;83.37;;;12.97;;
7003;SDS011;3542;48.812;9.146;2023-02-28T13:11:58;76.90;;;11.53;;
7003;SDS011;3542;48.812;9.146;2023-02-28T13:14:28;77.70;;;11.80;;
7003;SDS011;3542;48.812;9.146;2023-02-28T13:24:54;113.10;;;20.87;;
7003;SDS011;3542;48.812;9.146;2023-02-28T13:27:22;113.73;;;21.47;;
7003;SDS011;3542;48.812;9.146;2023-02-28T13:30:00;119.43;;;22.97;;
7003;SDS011;3542;48.812;9.146;2023-02-28T13:32:31;126.13;;;23.13;;
7003;SDS011;3542;48.812;9.146;2023-02-28T13:55:48;263.03;;;51.27;;
7003;SDS011;3542;48.812;9.146;2023-02-28T14:01:14;82.37;;;11.87;;
7003;SDS011;3542;48.812;9.146;2023-02-28T14:04:10;87.43;;;13.20;;
7003;SDS011;3542;48.812;9.146;2023-02-28T14:07:04;222.30;;;58.77;;
7003;SDS011;3542;48.812;9.146;2023-02-28T14:09:38;178.80;;;34.10;;
7003;SDS011;3542;48.812;9.146;2023-02-28T14:15:26;85.50;;;11.57;;
7003;SDS011;3542;48.812;9.146;2023-02-28T14:17:58;83.97;;;12.00;;
7003;SDS011;3542;48.812;9.146;2023-02-28T14:20:27;111.77;;;28.00;;
7003;SDS011;3542;48.812;9.146;2023-02-28T14:28:55;85.67;;;12.10;;
7003;SDS011;3542;48.812;9.146;2023-02-28T14:31:28;83.47;;;11.80;;
7003;SDS011;3542;48.812;9.146;2023-02-28T14:34:12;86.90;;;12.17;;
7003;SDS011;3542;48.812;9.146;2023-02-28T14:36:48;82.23;;;11.80;;
7003;SDS011;3542;48.812;9.146;2023-02-28T14:39:19;87.33;;;12.63;;
7003;SDS011;3542;48.812;9.146;2023-02-28T14:41:47;84.53;;;12.33;;
7003;SDS011;3542;48.812;9.146;2023-02-28T14:44:17;90.00;;;12.73;;
7003;SDS011;3542;48.812;9.146;2023-02-28T14:46:49;91.63;;;13.47;;
7003;SDS011;3542;48.812;9.146;2023-02-28T14:52:06;92.67;;;14.07;;
7003;SDS011;3542;48.812;9.146;2023-02-28T14:54:54;96.40;;;13.80;;
7003;SDS011;3542;48.812;9.146;2023-02-28T14:57:30;100.47;;;15.13;;
7003;SDS011;3542;48.812;9.146;2023-02-28T15:00:31;105.70;;;16.10;;
7003;SDS011;3542;48.812;9.146;2023-02-28T15:02:49;100.00;;;15.10;;
7003;SDS011;3542;48.812;9.146;2023-02-28T15:07:43;101.10;;;15.47;;
7003;SDS011;3542;48.812;9.146;2023-02-28T15:10:20;103.50;;;16.17;;
7003;SDS011;3542;48.812;9.146;2023-02-28T15:12:51;106.97;;;18.33;;
7003;SDS011;3542;48.812;9.146;2023-02-28T15:15:26;106.30;;;17.13;;
7003;SDS011;3542;48.812;9.146;2023-02-28T15:21:22;105.23;;;15.43;;
7003;SDS011;3542;48.812;9.146;2023-02-28T15:23:51;100.03;;;15.77;;
7003;SDS011;3542;48.812;9.146;2023-02-28T15:26:30;101.10;;;15.33;;
7003;SDS011;3542;48.812;9.146;2023-02-28T15:29:06;103.03;;;15.70;;
7003;SDS011;3542;48.812;9.146;2023-02-28T15:31:45;98.97;;;15.10;;
7003;SDS011;3542;48.812;9.146;2023-02-28T15:34:59;100.67;;;15.93;;
7003;SDS011;3542;48.812;9.146;2023-02-28T15:39:50;105.90;;;16.33;;
7003;SDS011;3542;48.812;9.146;2023-02-28T15:42:20;106.30;;;17.07;;
7003;SDS011;3542;48.812;9.146;2023-02-28T15:44:47;105.77;;;17.90;;
7003;SDS011;3542;48.812;9.146;2023-02-28T15:47:24;106.77;;;20.97;;
7003;SDS011;3542;48.812;9.146;2023-02-28T15:49:53;115.80;;;19.23;;
7003;SDS011;3542;48.812;9.146;2023-02-28T15:54:59;112.30;;;18.83;;
7003;SDS011;3542;48.812;9.146;2023-02-28T15:57:35;88.73;;;12.93;;
7003;SDS011;3542;48.812;9.146;2023-02-28T16:00:03;88.97;;;12.00;;
7003;SDS011;3542;48.812;9.146;2023-02-28T16:04:58;92.63;;;12.43;;
7003;SDS011;3542;48.812;9.146;2023-02-28T16:07:33;93.43;;;12.57;;
7003;SDS011;3542;48.812;9.146;2023-02-28T16:10:04;98.37;;;15.23;;
7003;SDS011;3542;48.812;9.146;2023-02-28T16:12:31;99.77;;;15.63;;
7003;SDS011;3542;48.812;9.146;2023-02-28T16:15:00;98.17;;;15.47;;
7003;SDS011;3542;48.812;9.146;2023-02-28T16:17:29;101.70;;;15.43;;
7003;SDS011;3542;48.812;9.146;2023-02-28T16:19:57;101.17;;;16.30;;
7003;SDS011;3542;48.812;9.146;2023-02-28T16:22:23;110.50;;;17.50;;
7003;SDS011;3542;48.812;9.146;2023-02-28T16:24:49;108.50;;;19.43;;
7003;SDS011;3542;48.812;9.146;2023-02-28T16:29:56;104.97;;;16.23;;
7003;SDS011;3542;48.812;9.146;2023-02-28T16:32:22;105.03;;;16.43;;
7003;SDS011;3542;48.812;9.146;2023-02-28T16:34:48;102.87;;;16.67;;
7003;SDS011;3542;48.812;9.146;2023-02-28T16:37:14;101.07;;;16.73;;
7003;SDS011;3542;48.812;9.146;2023-02-28T16:39:41;105.13;;;17.23;;
7003;SDS011;3542;48.812;9.146;2023-02-28T16:42:11;106.80;;;15.97;;
7003;SDS011;3542;48.812;9.146;2023-02-28T16:44:46;104.10;;;17.27;;
7003;SDS011;3542;48.812;9.146;2023-02-28T16:47:12;103.37;;;16.40;;
7003;SDS011;3542;48.812;9.146;2023-02-28T16:49:38;100.50;;;15.93;;
7003;SDS011;3542;48.812;9.146;2023-02-28T16:52:06;101.00;;;15.60;;
7003;SDS011;3542;48.812;9.146;2023-02-28T16:54:32;103.87;;;16.93;;
7003;SDS011;3542;48.812;9.146;2023-02-28T16:56:58;105.57;;;18.10;;
7003;SDS011;3542;48.812;9.146;2023-02-28T16:59:24;105.53;;;17.10;;
7003;SDS011;3542;48.812;9.146;2023-02-28T17:01:52;102.27;;;17.30;;
7003;SDS011;3542;48.812;9.146;2023-02-28T17:04:18;104.80;;;15.13;;
7003;SDS011;3542;48.812;9.146;2023-02-28T17:06:44;106.47;;;18.50;;
7003;SDS011;3542;48.812;9.146;2023-02-28T17:09:15;105.50;;;17.67;;
7003;SDS011;3542;48.812;9.146;2023-02-28T17:11:42;228.30;;;55.90;;
7003;SDS011;3542;48.812;9.146;2023-02-28T17:14:08;108.33;;;18.80;;
7003;SDS011;3542;48.812;9.146;2023-02-28T17:16:34;155.87;;;34.70;;
7003;SDS011;3542;48.812;9.146;2023-02-28T17:19:05;102.93;;;15.20;;
7003;SDS011;3542;48.812;9.146;2023-02-28T17:21:32;168.20;;;48.77;;
7003;SDS011;3542;48.812;9.146;2023-02-28T17:23:59;102.40;;;16.57;;
7003;SDS011;3542;48.812;9.146;2023-02-28T17:26:25;100.70;;;16.00;;
7003;SDS011;3542;48.812;9.146;2023-02-28T17:28:52;99.57;;;15.27;;
7003;SDS011;3542;48.812;9.146;2023-02-28T17:31:20;174.27;;;45.47;;
7003;SDS011;3542;48.812;9.146;2023-02-28T17:33:50;103.20;;;15.50;;
7003;SDS011;3542;48.812;9.146;2023-02-28T17:36:24;105.50;;;16.07;;
7003;SDS011;3542;48.812;9.146;2023-02-28T17:38:51;104.90;;;16.60;;
7003;SDS011;3542;48.812;9.146;2023-02-28T17:41:17;170.53;;;40.50;;
7003;SDS011;3542;48.812;9.146;2023-02-28T17:43:43;110.70;;;17.23;;
7003;SDS011;3542;48.812;9.146;2023-02-28T17:46:16;103.00;;;15.63;;
7003;SDS011;3542;48.812;9.146;2023-02-28T17:48:50;102.07;;;15.93;;
7003;SDS011;3542;48.812;9.146;2023-02-28T17:51:18;107.03;;;15.97;;
7003;SDS011;3542;48.812;9.146;2023-02-28T17:53:45;181.77;;;63.57;;
7003;SDS011;3542;48.812;9.146;2023-02-28T17:56:14;99.37;;;15.33;;
7003;SDS011;3542;48.812;9.146;2023-02-28T17:58:42;102.27;;;16.53;;
7003;SDS011;3542;48.812;9.146;2023-02-28T18:01:08;201.17;;;46.60;;
7003;SDS011;3542;48.812;9.146;2023-02-28T18:03:34;105.57;;;16.80;;
7003;SDS011;3542;48.812;9.146;2023-02-28T18:06:00;202.43;;;41.90;;
7003;SDS011;3542;48.812;9.146;2023-02-28T18:08:27;105.80;;;16.23;;
7003;SDS011;3542;48.812;9.146;2023-02-28T18:10:53;175.23;;;37.90;;
7003;SDS011;3542;48.812;9.146;2023-02-28T18:13:18;101.97;;;16.10;;
7003;SDS011;3542;48.812;9.146;2023-02-28T18:15:44;105.37;;;17.60;;
7003;SDS011;3542;48.812;9.146;2023-02-28T18:18:09;304.80;;;141.03;;
7003;SDS011;3542;48.812;9.146;2023-02-28T18:20:35;107.23;;;17.30;;
7003;SDS011;3542;48.812;9.146;2023-02-28T18:23:00;109.70;;;17.70;;
7003;SDS011;3542;48.812;9.146;2023-02-28T18:25:26;113.23;;;17.60;;
7003;SDS011;3542;48.812;9.146;2023-02-28T18:27:52;115.93;;;20.00;;
7003;SDS011;3542;48.812;9.146;2023-02-28T18:30:18;113.47;;;23.13;;